sensor_id;sensor_type;location;lat;lon;timestamp;temperature;humidity
20777;DHT22;10548;47.504;8.248;2024-01-25T00:00:56;10.40;99.90
20777;DHT22;10548;47.504;8.248;2024-01-25T00:03:24;10.30;99.90
20777;DHT22;10548;47.504;8.248;2024-01-25T00:05:51;10.30;99.90
20777;DHT22;10548;47.504;8.248;2024-01-25T00:08:19;10.30;99.90
20777;DHT22;10548;47.504;8.248;2024-01-25T00:10:46;10.30;99.90
20777;DHT22;10548;47.504;8.248;2024-01-25T00:13:13;10.20;99.90
20777;DHT22;10548;47.504;8.248;2024-01-25T00:15:40;10.20;99.90
20777;DHT22;10548;47.504;8.248;2024-01-25T00:18:08;10.20;99.90
20777;DHT22;10548;47.504;8.248;2024-01-25T00:20:35;10.10;99.90
20777;DHT22;10548;47.504;8.248;2024-01-25T00:23:03;10.10;99.90
20777;DHT22;10548;47.504;8.248;2024-01-25T00:25:30;10.20;99.90
20777;DHT22;10548;47.504;8.248;2024-01-25T00:27:57;10.20;99.90
20777;DHT22;10548;47.504;8.248;2024-01-25T00:30:25;10.10;99.90
20777;DHT22;10548;47.504;8.248;2024-01-25T00:32:52;10.00;99.90
20777;DHT22;10548;47.504;8.248;2024-01-25T00:35:20;10.00;99.90
20777;DHT22;10548;47.504;8.248;2024-01-25T00:37:48;10.00;99.90
20777;DHT22;10548;47.504;8.248;2024-01-25T00:40:16;10.00;99.90
20777;DHT22;10548;47.504;8.248;2024-01-25T00:42:46;10.10;99.90
20777;DHT22;10548;47.504;8.248;2024-01-25T00:45:21;10.10;99.90
20777;DHT22;10548;47.504;8.248;2024-01-25T00:47:50;10.00;99.90
20777;DHT22;10548;47.504;8.248;2024-01-25T00:50:18;10.00;99.90
20777;DHT22;10548;47.504;8.248;2024-01-25T00:52:49;10.00;99.90
20777;DHT22;10548;47.504;8.248;2024-01-25T00:55:16;10.00;99.90
20777;DHT22;10548;47.504;8.248;2024-01-25T00:57:45;10.00;99.90
20777;DHT22;10548;47.504;8.248;2024-01-25T01:00:13;10.00;99.90
20777;DHT22;10548;47.504;8.248;2024-01-25T01:02:43;10.00;99.90
20777;DHT22;10548;47.504;8.248;2024-01-25T01:05:12;10.00;99.90
20777;DHT22;10548;47.504;8.248;2024-01-25T01:07:40;10.10;99.90
20777;DHT22;10548;47.504;8.248;2024-01-25T01:10:08;10.00;99.90
20777;DHT22;10548;47.504;8.248;2024-01-25T01:12:36;10.00;99.90
20777;DHT22;10548;47.504;8.248;2024-01-25T01:15:05;10.10;99.90
20777;DHT22;10548;47.504;8.248;2024-01-25T01:17:32;10.00;99.90
20777;DHT22;10548;47.504;8.248;2024-01-25T01:19:59;10.00;99.90
20777;DHT22;10548;47.504;8.248;2024-01-25T01:22:27;9.90;99.90
20777;DHT22;10548;47.504;8.248;2024-01-25T01:24:54;9.80;99.90
20777;DHT22;10548;47.504;8.248;2024-01-25T01:27:22;9.80;99.90
20777;DHT22;10548;47.504;8.248;2024-01-25T01:29:49;9.80;99.90
20777;DHT22;10548;47.504;8.248;2024-01-25T01:32:17;9.80;99.90
20777;DHT22;10548;47.504;8.248;2024-01-25T01:34:44;9.80;99.90
20777;DHT22;10548;47.504;8.248;2024-01-25T01:37:12;9.80;99.90
20777;DHT22;10548;47.504;8.248;2024-01-25T01:39:40;9.90;99.90
20777;DHT22;10548;47.504;8.248;2024-01-25T01:42:07;9.80;99.90
20777;DHT22;10548;47.504;8.248;2024-01-25T01:44:34;9.80;99.90
20777;DHT22;10548;47.504;8.248;2024-01-25T01:47:02;9.80;99.90
20777;DHT22;10548;47.504;8.248;2024-01-25T01:49:29;9.80;99.90
20777;DHT22;10548;47.504;8.248;2024-01-25T01:51:57;9.90;99.90
20777;DHT22;10548;47.504;8.248;2024-01-25T01:54:24;9.90;99.90
20777;DHT22;10548;47.504;8.248;2024-01-25T01:56:52;9.80;99.90
20777;DHT22;10548;47.504;8.248;2024-01-25T01:59:20;9.80;99.90
20777;DHT22;10548;47.504;8.248;2024-01-25T02:01:48;9.90;99.90
20777;DHT22;10548;47.504;8.248;2024-01-25T02:04:15;9.90;99.90
20777;DHT22;10548;47.504;8.248;2024-01-25T02:06:43;9.90;99.90
20777;DHT22;10548;47.504;8.248;2024-01-25T02:09:13;9.90;99.90
20777;DHT22;10548;47.504;8.248;2024-01-25T02:11:40;9.90;99.90
20777;DHT22;10548;47.504;8.248;2024-01-25T02:14:08;9.90;99.90
20777;DHT22;10548;47.504;8.248;2024-01-25T02:16:38;9.80;99.90
20777;DHT22;10548;47.504;8.248;2024-01-25T02:19:06;9.90;99.90
20777;DHT22;10548;47.504;8.248;2024-01-25T02:21:33;9.90;99.90
20777;DHT22;10548;47.504;8.248;2024-01-25T02:24:01;9.90;99.90
20777;DHT22;10548;47.504;8.248;2024-01-25T02:26:28;9.80;99.90
20777;DHT22;10548;47.504;8.248;2024-01-25T02:28:55;9.80;99.90
20777;DHT22;10548;47.504;8.248;2024-01-25T02:31:23;9.80;99.90
20777;DHT22;10548;47.504;8.248;2024-01-25T02:33:50;9.80;99.90
20777;DHT22;10548;47.504;8.248;2024-01-25T02:36:21;9.80;99.90
20777;DHT22;10548;47.504;8.248;2024-01-25T02:38:48;9.80;99.90
20777;DHT22;10548;47.504;8.248;2024-01-25T02:41:16;9.80;99.90
20777;DHT22;10548;47.504;8.248;2024-01-25T02:43:43;9.80;99.90
20777;DHT22;10548;47.504;8.248;2024-01-25T02:46:10;9.80;99.90
20777;DHT22;10548;47.504;8.248;2024-01-25T02:48:38;9.80;99.90
20777;DHT22;10548;47.504;8.248;2024-01-25T02:51:05;9.90;99.90
20777;DHT22;10548;47.504;8.248;2024-01-25T02:53:33;9.80;99.90
20777;DHT22;10548;47.504;8.248;2024-01-25T02:56:00;9.80;99.90
20777;DHT22;10548;47.504;8.248;2024-01-25T02:58:27;9.80;99.90
20777;DHT22;10548;47.504;8.248;2024-01-25T03:00:55;9.80;99.90
20777;DHT22;10548;47.504;8.248;2024-01-25T03:03:22;9.80;99.90
20777;DHT22;10548;47.504;8.248;2024-01-25T03:05:53;9.70;99.90
20777;DHT22;10548;47.504;8.248;2024-01-25T03:08:21;9.80;99.90
20777;DHT22;10548;47.504;8.248;2024-01-25T03:10:48;9.80;99.90
20777;DHT22;10548;47.504;8.248;2024-01-25T03:13:16;9.70;99.90
20777;DHT22;10548;47.504;8.248;2024-01-25T03:15:44;9.80;99.90
20777;DHT22;10548;47.504;8.248;2024-01-25T03:18:11;9.90;99.90
20777;DHT22;10548;47.504;8.248;2024-01-25T03:20:39;9.90;99.90
20777;DHT22;10548;47.504;8.248;2024-01-25T03:23:06;9.90;99.90
20777;DHT22;10548;47.504;8.248;2024-01-25T03:25:33;9.80;99.90
20777;DHT22;10548;47.504;8.248;2024-01-25T03:28:00;9.90;99.90
20777;DHT22;10548;47.504;8.248;2024-01-25T03:30:28;9.90;99.90
20777;DHT22;10548;47.504;8.248;2024-01-25T03:32:55;9.90;99.90
20777;DHT22;10548;47.504;8.248;2024-01-25T03:35:23;9.90;99.90
20777;DHT22;10548;47.504;8.248;2024-01-25T03:37:50;9.90;99.90
20777;DHT22;10548;47.504;8.248;2024-01-25T03:40:17;9.90;99.90
20777;DHT22;10548;47.504;8.248;2024-01-25T03:42:45;9.90;99.90
20777;DHT22;10548;47.504;8.248;2024-01-25T03:45:32;9.90;99.90
20777;DHT22;10548;47.504;8.248;2024-01-25T03:47:59;9.90;99.90
20777;DHT22;10548;47.504;8.248;2024-01-25T03:50:27;9.90;99.90
20777;DHT22;10548;47.504;8.248;2024-01-25T03:52:54;9.90;99.90
20777;DHT22;10548;47.504;8.248;2024-01-25T03:55:22;9.90;99.90
20777;DHT22;10548;47.504;8.248;2024-01-25T03:57:49;9.90;99.90
20777;DHT22;10548;47.504;8.248;2024-01-25T04:00:17;9.90;99.90
20777;DHT22;10548;47.504;8.248;2024-01-25T04:02:44;9.90;99.90
20777;DHT22;10548;47.504;8.248;2024-01-25T04:05:12;9.90;99.90
20777;DHT22;10548;47.504;8.248;2024-01-25T04:07:39;9.80;99.90
20777;DHT22;10548;47.504;8.248;2024-01-25T04:10:07;9.80;99.90
20777;DHT22;10548;47.504;8.248;2024-01-25T04:12:34;9.90;99.90
20777;DHT22;10548;47.504;8.248;2024-01-25T04:15:02;9.90;99.90
20777;DHT22;10548;47.504;8.248;2024-01-25T04:17:29;9.90;99.90
20777;DHT22;10548;47.504;8.248;2024-01-25T04:19:56;9.90;99.90
20777;DHT22;10548;47.504;8.248;2024-01-25T04:22:24;9.90;99.90
20777;DHT22;10548;47.504;8.248;2024-01-25T04:24:51;9.90;99.90
20777;DHT22;10548;47.504;8.248;2024-01-25T04:27:18;10.00;99.90
20777;DHT22;10548;47.504;8.248;2024-01-25T04:29:46;10.00;99.90
20777;DHT22;10548;47.504;8.248;2024-01-25T04:32:13;10.00;99.90
20777;DHT22;10548;47.504;8.248;2024-01-25T04:34:40;10.10;99.90
20777;DHT22;10548;47.504;8.248;2024-01-25T04:37:08;10.10;99.90
20777;DHT22;10548;47.504;8.248;2024-01-25T04:39:35;10.00;99.90
20777;DHT22;10548;47.504;8.248;2024-01-25T04:42:03;10.10;99.90
20777;DHT22;10548;47.504;8.248;2024-01-25T04:44:31;10.10;99.90
20777;DHT22;10548;47.504;8.248;2024-01-25T04:46:58;10.10;99.90
20777;DHT22;10548;47.504;8.248;2024-01-25T04:49:25;10.10;99.90
20777;DHT22;10548;47.504;8.248;2024-01-25T04:51:53;10.00;99.90
20777;DHT22;10548;47.504;8.248;2024-01-25T04:54:21;10.10;99.90
20777;DHT22;10548;47.504;8.248;2024-01-25T04:56:48;10.10;99.90
20777;DHT22;10548;47.504;8.248;2024-01-25T04:59:15;10.10;99.90
20777;DHT22;10548;47.504;8.248;2024-01-25T05:01:42;10.10;99.90
20777;DHT22;10548;47.504;8.248;2024-01-25T05:04:10;10.10;99.90
20777;DHT22;10548;47.504;8.248;2024-01-25T05:06:38;10.20;99.90
20777;DHT22;10548;47.504;8.248;2024-01-25T05:09:05;10.20;99.90
20777;DHT22;10548;47.504;8.248;2024-01-25T05:11:39;10.20;99.90
20777;DHT22;10548;47.504;8.248;2024-01-25T05:14:07;10.20;99.90
20777;DHT22;10548;47.504;8.248;2024-01-25T05:16:34;10.20;99.90
20777;DHT22;10548;47.504;8.248;2024-01-25T05:19:04;10.20;99.90
20777;DHT22;10548;47.504;8.248;2024-01-25T05:21:32;10.20;99.90
20777;DHT22;10548;47.504;8.248;2024-01-25T05:23:59;10.30;99.90
20777;DHT22;10548;47.504;8.248;2024-01-25T05:26:27;10.20;99.90
20777;DHT22;10548;47.504;8.248;2024-01-25T05:28:54;10.30;99.90
20777;DHT22;10548;47.504;8.248;2024-01-25T05:31:21;10.20;99.90
20777;DHT22;10548;47.504;8.248;2024-01-25T05:33:49;10.30;99.90
20777;DHT22;10548;47.504;8.248;2024-01-25T05:36:16;10.30;99.90
20777;DHT22;10548;47.504;8.248;2024-01-25T05:38:44;10.30;99.90
20777;DHT22;10548;47.504;8.248;2024-01-25T05:41:11;10.30;99.90
20777;DHT22;10548;47.504;8.248;2024-01-25T05:43:38;10.30;99.90
20777;DHT22;10548;47.504;8.248;2024-01-25T05:46:05;10.30;99.90
20777;DHT22;10548;47.504;8.248;2024-01-25T05:48:33;10.30;99.90
20777;DHT22;10548;47.504;8.248;2024-01-25T05:51:00;10.30;99.90
20777;DHT22;10548;47.504;8.248;2024-01-25T05:53:28;10.30;99.90
20777;DHT22;10548;47.504;8.248;2024-01-25T05:55:55;10.30;99.90
20777;DHT22;10548;47.504;8.248;2024-01-25T05:58:22;10.30;99.90
20777;DHT22;10548;47.504;8.248;2024-01-25T06:00:50;10.30;99.90
20777;DHT22;10548;47.504;8.248;2024-01-25T06:03:18;10.30;99.90
20777;DHT22;10548;47.504;8.248;2024-01-25T06:05:45;10.30;99.90
20777;DHT22;10548;47.504;8.248;2024-01-25T06:08:12;10.30;99.90
20777;DHT22;10548;47.504;8.248;2024-01-25T06:10:40;10.30;99.90
20777;DHT22;10548;47.504;8.248;2024-01-25T06:13:07;10.30;99.90
20777;DHT22;10548;47.504;8.248;2024-01-25T06:15:35;10.20;99.90
20777;DHT22;10548;47.504;8.248;2024-01-25T06:18:02;10.20;99.90
20777;DHT22;10548;47.504;8.248;2024-01-25T06:20:30;10.20;99.90
20777;DHT22;10548;47.504;8.248;2024-01-25T06:22:57;10.20;99.90
20777;DHT22;10548;47.504;8.248;2024-01-25T06:25:25;10.20;99.90
20777;DHT22;10548;47.504;8.248;2024-01-25T06:27:56;10.20;99.90
20777;DHT22;10548;47.504;8.248;2024-01-25T06:30:24;10.20;99.90
20777;DHT22;10548;47.504;8.248;2024-01-25T06:32:51;10.10;99.90
20777;DHT22;10548;47.504;8.248;2024-01-25T06:35:19;10.10;99.90
20777;DHT22;10548;47.504;8.248;2024-01-25T06:37:46;10.10;99.90
20777;DHT22;10548;47.504;8.248;2024-01-25T06:40:14;10.10;99.90
20777;DHT22;10548;47.504;8.248;2024-01-25T06:42:41;10.10;99.90
20777;DHT22;10548;47.504;8.248;2024-01-25T06:45:10;10.10;99.90
20777;DHT22;10548;47.504;8.248;2024-01-25T06:47:38;10.10;99.90
20777;DHT22;10548;47.504;8.248;2024-01-25T06:50:06;10.00;99.90
20777;DHT22;10548;47.504;8.248;2024-01-25T06:52:33;10.10;99.90
20777;DHT22;10548;47.504;8.248;2024-01-25T06:55:01;10.10;99.90
20777;DHT22;10548;47.504;8.248;2024-01-25T06:57:29;10.10;99.90
20777;DHT22;10548;47.504;8.248;2024-01-25T06:59:56;10.10;99.90
20777;DHT22;10548;47.504;8.248;2024-01-25T07:02:24;10.10;99.90
20777;DHT22;10548;47.504;8.248;2024-01-25T07:04:52;10.00;99.90
20777;DHT22;10548;47.504;8.248;2024-01-25T07:07:21;10.00;99.90
20777;DHT22;10548;47.504;8.248;2024-01-25T07:09:48;9.90;99.90
20777;DHT22;10548;47.504;8.248;2024-01-25T07:12:16;10.00;99.90
20777;DHT22;10548;47.504;8.248;2024-01-25T07:14:43;10.00;99.90
20777;DHT22;10548;47.504;8.248;2024-01-25T07:17:10;10.00;99.90
20777;DHT22;10548;47.504;8.248;2024-01-25T07:19:38;10.10;99.90
20777;DHT22;10548;47.504;8.248;2024-01-25T07:22:05;10.00;99.90
20777;DHT22;10548;47.504;8.248;2024-01-25T07:24:32;10.00;99.90
20777;DHT22;10548;47.504;8.248;2024-01-25T07:27:00;10.00;99.90
20777;DHT22;10548;47.504;8.248;2024-01-25T07:29:27;10.00;99.90
20777;DHT22;10548;47.504;8.248;2024-01-25T07:31:55;9.90;99.90
20777;DHT22;10548;47.504;8.248;2024-01-25T07:34:23;10.00;99.90
20777;DHT22;10548;47.504;8.248;2024-01-25T07:36:50;10.00;99.90
20777;DHT22;10548;47.504;8.248;2024-01-25T07:39:18;10.00;99.90
20777;DHT22;10548;47.504;8.248;2024-01-25T07:41:45;10.10;99.90
20777;DHT22;10548;47.504;8.248;2024-01-25T07:44:13;10.10;99.90
20777;DHT22;10548;47.504;8.248;2024-01-25T07:46:40;10.10;99.90
20777;DHT22;10548;47.504;8.248;2024-01-25T07:49:07;10.10;99.90
20777;DHT22;10548;47.504;8.248;2024-01-25T07:51:35;10.10;99.90
20777;DHT22;10548;47.504;8.248;2024-01-25T07:54:03;10.10;99.90
20777;DHT22;10548;47.504;8.248;2024-01-25T07:56:30;10.10;99.90
20777;DHT22;10548;47.504;8.248;2024-01-25T07:58:57;10.10;99.90
20777;DHT22;10548;47.504;8.248;2024-01-25T08:01:27;10.20;99.90
20777;DHT22;10548;47.504;8.248;2024-01-25T08:03:55;10.30;99.90
20777;DHT22;10548;47.504;8.248;2024-01-25T08:06:23;10.30;99.90
20777;DHT22;10548;47.504;8.248;2024-01-25T08:08:50;10.30;99.90
20777;DHT22;10548;47.504;8.248;2024-01-25T08:11:17;10.40;99.90
20777;DHT22;10548;47.504;8.248;2024-01-25T08:13:47;10.30;99.90
20777;DHT22;10548;47.504;8.248;2024-01-25T08:16:17;10.30;99.90
20777;DHT22;10548;47.504;8.248;2024-01-25T08:18:48;10.40;99.90
20777;DHT22;10548;47.504;8.248;2024-01-25T08:21:16;10.60;99.90
20777;DHT22;10548;47.504;8.248;2024-01-25T08:23:44;10.60;99.90
20777;DHT22;10548;47.504;8.248;2024-01-25T08:26:11;10.70;99.90
20777;DHT22;10548;47.504;8.248;2024-01-25T08:28:40;10.60;99.90
20777;DHT22;10548;47.504;8.248;2024-01-25T08:31:07;10.70;99.90
20777;DHT22;10548;47.504;8.248;2024-01-25T08:33:35;10.80;99.90
20777;DHT22;10548;47.504;8.248;2024-01-25T08:36:03;10.80;99.90
20777;DHT22;10548;47.504;8.248;2024-01-25T08:38:31;10.90;99.90
20777;DHT22;10548;47.504;8.248;2024-01-25T08:40:58;10.80;99.90
20777;DHT22;10548;47.504;8.248;2024-01-25T08:43:25;10.80;99.90
20777;DHT22;10548;47.504;8.248;2024-01-25T08:45:53;10.70;99.90
20777;DHT22;10548;47.504;8.248;2024-01-25T08:48:20;10.80;99.90
20777;DHT22;10548;47.504;8.248;2024-01-25T08:50:48;10.70;99.90
20777;DHT22;10548;47.504;8.248;2024-01-25T08:53:20;10.80;99.90
20777;DHT22;10548;47.504;8.248;2024-01-25T08:55:54;10.70;99.90
20777;DHT22;10548;47.504;8.248;2024-01-25T08:58:22;10.70;99.90
20777;DHT22;10548;47.504;8.248;2024-01-25T09:00:49;10.70;99.90
20777;DHT22;10548;47.504;8.248;2024-01-25T09:03:17;10.70;99.90
20777;DHT22;10548;47.504;8.248;2024-01-25T09:05:44;10.80;99.90
20777;DHT22;10548;47.504;8.248;2024-01-25T09:08:12;10.80;99.90
20777;DHT22;10548;47.504;8.248;2024-01-25T09:10:41;10.80;99.90
20777;DHT22;10548;47.504;8.248;2024-01-25T09:13:09;10.90;99.90
20777;DHT22;10548;47.504;8.248;2024-01-25T09:15:36;10.90;99.90
20777;DHT22;10548;47.504;8.248;2024-01-25T09:18:04;10.90;99.90
20777;DHT22;10548;47.504;8.248;2024-01-25T09:20:32;10.90;99.90
20777;DHT22;10548;47.504;8.248;2024-01-25T09:23:00;10.80;99.90
20777;DHT22;10548;47.504;8.248;2024-01-25T09:25:27;10.90;99.90
20777;DHT22;10548;47.504;8.248;2024-01-25T09:27:55;11.00;99.90
20777;DHT22;10548;47.504;8.248;2024-01-25T09:30:24;11.10;99.90
20777;DHT22;10548;47.504;8.248;2024-01-25T09:32:51;11.10;99.90
20777;DHT22;10548;47.504;8.248;2024-01-25T09:35:19;11.10;99.90
20777;DHT22;10548;47.504;8.248;2024-01-25T09:37:46;10.90;99.90
20777;DHT22;10548;47.504;8.248;2024-01-25T09:40:14;11.00;99.90
20777;DHT22;10548;47.504;8.248;2024-01-25T09:42:42;11.00;99.90
20777;DHT22;10548;47.504;8.248;2024-01-25T09:45:11;11.10;99.90
20777;DHT22;10548;47.504;8.248;2024-01-25T09:47:44;11.10;99.90
20777;DHT22;10548;47.504;8.248;2024-01-25T09:50:12;11.00;99.90
20777;DHT22;10548;47.504;8.248;2024-01-25T09:52:43;11.10;99.90
20777;DHT22;10548;47.504;8.248;2024-01-25T09:55:15;11.10;99.90
20777;DHT22;10548;47.504;8.248;2024-01-25T09:57:46;11.10;99.90
20777;DHT22;10548;47.504;8.248;2024-01-25T10:00:17;11.10;99.90
20777;DHT22;10548;47.504;8.248;2024-01-25T10:02:44;11.00;99.90
20777;DHT22;10548;47.504;8.248;2024-01-25T10:05:11;11.20;99.90
20777;DHT22;10548;47.504;8.248;2024-01-25T10:07:40;11.30;99.90
20777;DHT22;10548;47.504;8.248;2024-01-25T10:10:09;11.20;99.90
20777;DHT22;10548;47.504;8.248;2024-01-25T10:12:37;11.20;99.90
20777;DHT22;10548;47.504;8.248;2024-01-25T10:15:06;11.30;99.90
20777;DHT22;10548;47.504;8.248;2024-01-25T10:17:34;11.40;99.90
20777;DHT22;10548;47.504;8.248;2024-01-25T10:20:22;11.50;99.90
20777;DHT22;10548;47.504;8.248;2024-01-25T10:22:58;11.50;99.90
20777;DHT22;10548;47.504;8.248;2024-01-25T10:25:27;11.70;99.90
20777;DHT22;10548;47.504;8.248;2024-01-25T10:27:55;11.70;99.90
20777;DHT22;10548;47.504;8.248;2024-01-25T10:30:22;11.70;99.90
20777;DHT22;10548;47.504;8.248;2024-01-25T10:32:51;11.70;99.90
20777;DHT22;10548;47.504;8.248;2024-01-25T10:35:20;11.70;99.90
20777;DHT22;10548;47.504;8.248;2024-01-25T10:37:51;11.80;99.90
20777;DHT22;10548;47.504;8.248;2024-01-25T10:40:20;11.90;99.90
20777;DHT22;10548;47.504;8.248;2024-01-25T10:42:48;11.90;99.90
20777;DHT22;10548;47.504;8.248;2024-01-25T10:45:16;11.80;99.90
20777;DHT22;10548;47.504;8.248;2024-01-25T10:47:48;11.80;99.90
20777;DHT22;10548;47.504;8.248;2024-01-25T10:50:16;11.80;99.90
20777;DHT22;10548;47.504;8.248;2024-01-25T10:52:44;12.00;99.90
20777;DHT22;10548;47.504;8.248;2024-01-25T10:55:12;12.00;99.90
20777;DHT22;10548;47.504;8.248;2024-01-25T10:57:44;12.00;99.90
20777;DHT22;10548;47.504;8.248;2024-01-25T11:00:13;11.90;99.90
20777;DHT22;10548;47.504;8.248;2024-01-25T11:02:45;11.90;99.90
20777;DHT22;10548;47.504;8.248;2024-01-25T11:05:14;11.90;99.90
20777;DHT22;10548;47.504;8.248;2024-01-25T11:07:44;11.90;99.90
20777;DHT22;10548;47.504;8.248;2024-01-25T11:10:17;11.80;99.90
20777;DHT22;10548;47.504;8.248;2024-01-25T11:13:01;11.80;99.90
20777;DHT22;10548;47.504;8.248;2024-01-25T11:15:35;12.00;99.90
20777;DHT22;10548;47.504;8.248;2024-01-25T11:18:04;12.00;99.90
20777;DHT22;10548;47.504;8.248;2024-01-25T11:20:36;11.90;99.90
20777;DHT22;10548;47.504;8.248;2024-01-25T11:23:06;12.00;99.90
20777;DHT22;10548;47.504;8.248;2024-01-25T11:25:35;12.10;99.90
20777;DHT22;10548;47.504;8.248;2024-01-25T11:28:04;12.30;99.90
20777;DHT22;10548;47.504;8.248;2024-01-25T11:30:33;12.40;99.90
20777;DHT22;10548;47.504;8.248;2024-01-25T11:33:04;12.30;99.90
20777;DHT22;10548;47.504;8.248;2024-01-25T11:35:33;12.00;99.90
20777;DHT22;10548;47.504;8.248;2024-01-25T11:38:01;11.70;99.90
20777;DHT22;10548;47.504;8.248;2024-01-25T11:40:28;11.70;99.90
20777;DHT22;10548;47.504;8.248;2024-01-25T11:43:00;11.90;99.90
20777;DHT22;10548;47.504;8.248;2024-01-25T11:45:27;12.20;99.90
20777;DHT22;10548;47.504;8.248;2024-01-25T11:47:54;12.10;99.90
20777;DHT22;10548;47.504;8.248;2024-01-25T11:50:22;12.60;99.90
20777;DHT22;10548;47.504;8.248;2024-01-25T11:52:50;12.90;99.90
20777;DHT22;10548;47.504;8.248;2024-01-25T11:55:17;12.60;99.90
20777;DHT22;10548;47.504;8.248;2024-01-25T11:57:45;12.90;99.90
20777;DHT22;10548;47.504;8.248;2024-01-25T12:00:14;13.30;99.90
20777;DHT22;10548;47.504;8.248;2024-01-25T12:02:43;12.90;99.90
20777;DHT22;10548;47.504;8.248;2024-01-25T12:05:11;12.80;99.90
20777;DHT22;10548;47.504;8.248;2024-01-25T12:07:39;12.80;99.90
20777;DHT22;10548;47.504;8.248;2024-01-25T12:10:10;12.70;99.90
20777;DHT22;10548;47.504;8.248;2024-01-25T12:12:38;12.80;99.90
20777;DHT22;10548;47.504;8.248;2024-01-25T12:15:06;12.60;99.90
20777;DHT22;10548;47.504;8.248;2024-01-25T12:17:37;12.40;99.90
20777;DHT22;10548;47.504;8.248;2024-01-25T12:20:06;12.00;99.90
20777;DHT22;10548;47.504;8.248;2024-01-25T12:22:39;12.30;99.90
20777;DHT22;10548;47.504;8.248;2024-01-25T12:25:08;12.30;99.90
20777;DHT22;10548;47.504;8.248;2024-01-25T12:27:39;12.20;99.90
20777;DHT22;10548;47.504;8.248;2024-01-25T12:30:09;12.20;99.90
20777;DHT22;10548;47.504;8.248;2024-01-25T12:32:36;12.50;99.90
20777;DHT22;10548;47.504;8.248;2024-01-25T12:35:05;12.60;99.90
20777;DHT22;10548;47.504;8.248;2024-01-25T12:37:32;13.30;99.90
20777;DHT22;10548;47.504;8.248;2024-01-25T12:40:00;13.60;99.90
20777;DHT22;10548;47.504;8.248;2024-01-25T12:42:27;13.90;99.90
20777;DHT22;10548;47.504;8.248;2024-01-25T12:44:55;14.60;99.90
20777;DHT22;10548;47.504;8.248;2024-01-25T12:47:22;14.90;99.90
20777;DHT22;10548;47.504;8.248;2024-01-25T12:49:50;14.00;99.90
20777;DHT22;10548;47.504;8.248;2024-01-25T12:52:18;13.90;99.90
20777;DHT22;10548;47.504;8.248;2024-01-25T12:54:45;14.40;99.90
20777;DHT22;10548;47.504;8.248;2024-01-25T12:57:13;14.80;99.90
20777;DHT22;10548;47.504;8.248;2024-01-25T12:59:41;15.20;99.90
20777;DHT22;10548;47.504;8.248;2024-01-25T13:02:08;14.50;99.90
20777;DHT22;10548;47.504;8.248;2024-01-25T13:04:36;13.90;99.90
20777;DHT22;10548;47.504;8.248;2024-01-25T13:07:09;13.40;99.90
20777;DHT22;10548;47.504;8.248;2024-01-25T13:09:36;13.00;99.90
20777;DHT22;10548;47.504;8.248;2024-01-25T13:12:04;12.90;99.90
20777;DHT22;10548;47.504;8.248;2024-01-25T13:14:32;12.40;99.90
20777;DHT22;10548;47.504;8.248;2024-01-25T13:17:00;12.40;99.90
20777;DHT22;10548;47.504;8.248;2024-01-25T13:19:27;12.50;99.90
20777;DHT22;10548;47.504;8.248;2024-01-25T13:21:55;12.30;99.90
20777;DHT22;10548;47.504;8.248;2024-01-25T13:24:25;12.10;99.90
20777;DHT22;10548;47.504;8.248;2024-01-25T13:26:53;11.90;99.90
20777;DHT22;10548;47.504;8.248;2024-01-25T13:29:20;12.00;99.90
20777;DHT22;10548;47.504;8.248;2024-01-25T13:41:38;11.90;99.90
20777;DHT22;10548;47.504;8.248;2024-01-25T13:44:06;12.00;99.90
20777;DHT22;10548;47.504;8.248;2024-01-25T13:46:33;12.10;99.90
20777;DHT22;10548;47.504;8.248;2024-01-25T13:49:00;12.30;99.90
20777;DHT22;10548;47.504;8.248;2024-01-25T13:51:28;12.30;99.90
20777;DHT22;10548;47.504;8.248;2024-01-25T13:53:55;12.10;99.90
20777;DHT22;10548;47.504;8.248;2024-01-25T14:01:19;12.10;99.90
20777;DHT22;10548;47.504;8.248;2024-01-25T14:03:47;11.90;99.90
20777;DHT22;10548;47.504;8.248;2024-01-25T14:06:15;12.00;99.90
20777;DHT22;10548;47.504;8.248;2024-01-25T14:08:42;12.30;99.90
20777;DHT22;10548;47.504;8.248;2024-01-25T14:11:10;12.40;99.90
20777;DHT22;10548;47.504;8.248;2024-01-25T14:13:37;12.50;99.90
20777;DHT22;10548;47.504;8.248;2024-01-25T14:16:05;12.50;99.90
20777;DHT22;10548;47.504;8.248;2024-01-25T14:18:39;12.50;99.90
20777;DHT22;10548;47.504;8.248;2024-01-25T14:21:07;12.50;99.90
20777;DHT22;10548;47.504;8.248;2024-01-25T14:23:34;12.40;99.90
20777;DHT22;10548;47.504;8.248;2024-01-25T14:26:04;12.30;99.90
20777;DHT22;10548;47.504;8.248;2024-01-25T14:28:32;12.00;99.90
20777;DHT22;10548;47.504;8.248;2024-01-25T14:30:59;12.00;99.90
20777;DHT22;10548;47.504;8.248;2024-01-25T14:33:27;12.20;99.90
20777;DHT22;10548;47.504;8.248;2024-01-25T14:35:54;12.40;99.90
20777;DHT22;10548;47.504;8.248;2024-01-25T14:38:22;12.80;99.90
20777;DHT22;10548;47.504;8.248;2024-01-25T14:40:49;13.60;99.90
20777;DHT22;10548;47.504;8.248;2024-01-25T14:43:26;14.80;99.90
20777;DHT22;10548;47.504;8.248;2024-01-25T14:45:53;15.10;99.90
20777;DHT22;10548;47.504;8.248;2024-01-25T14:48:21;13.10;99.90
20777;DHT22;10548;47.504;8.248;2024-01-25T14:50:48;13.10;99.90
20777;DHT22;10548;47.504;8.248;2024-01-25T14:53:15;12.90;99.90
20777;DHT22;10548;47.504;8.248;2024-01-25T15:00:44;13.00;99.90
20777;DHT22;10548;47.504;8.248;2024-01-25T15:03:12;12.90;99.90
20777;DHT22;10548;47.504;8.248;2024-01-25T15:05:39;13.50;99.90
20777;DHT22;10548;47.504;8.248;2024-01-25T15:08:07;13.50;99.90
20777;DHT22;10548;47.504;8.248;2024-01-25T15:10:34;13.80;99.90
20777;DHT22;10548;47.504;8.248;2024-01-25T15:13:01;14.00;99.90
20777;DHT22;10548;47.504;8.248;2024-01-25T15:15:29;13.70;99.90
20777;DHT22;10548;47.504;8.248;2024-01-25T15:17:57;14.20;99.90
20777;DHT22;10548;47.504;8.248;2024-01-25T15:20:25;14.00;99.90
20777;DHT22;10548;47.504;8.248;2024-01-25T15:22:52;13.20;99.90
20777;DHT22;10548;47.504;8.248;2024-01-25T15:25:19;13.40;99.90
20777;DHT22;10548;47.504;8.248;2024-01-25T15:27:47;13.30;99.90
20777;DHT22;10548;47.504;8.248;2024-01-25T15:30:16;13.50;99.90
20777;DHT22;10548;47.504;8.248;2024-01-25T15:32:43;13.20;99.90
20777;DHT22;10548;47.504;8.248;2024-01-25T15:35:13;13.20;99.90
20777;DHT22;10548;47.504;8.248;2024-01-25T15:37:41;13.00;99.90
20777;DHT22;10548;47.504;8.248;2024-01-25T15:40:09;12.50;99.90
20777;DHT22;10548;47.504;8.248;2024-01-25T15:42:44;12.30;99.90
20777;DHT22;10548;47.504;8.248;2024-01-25T15:45:11;12.40;99.90
20777;DHT22;10548;47.504;8.248;2024-01-25T15:47:39;12.20;99.90
20777;DHT22;10548;47.504;8.248;2024-01-25T15:50:07;12.10;99.90
20777;DHT22;10548;47.504;8.248;2024-01-25T15:52:34;12.00;99.90
20777;DHT22;10548;47.504;8.248;2024-01-25T15:55:02;11.90;99.90
20777;DHT22;10548;47.504;8.248;2024-01-25T15:57:30;11.70;99.90
20777;DHT22;10548;47.504;8.248;2024-01-25T15:59:59;11.60;99.90